Main page
METAR-TAF:

METAR-TAF

Airports :

Pelotas International Airport

Pelotas, Rio Grande do Sul, Brazil

latitude: 31-52S, longitude: 052-21W, elevation: 13 m

Current weather observation

The report was made 38 minutes ago, at 18:00 UTC
Wind 14 kt from the West/Southwest
Temperature 14°C
Humidity 67%
Pressure 1025 hPa
Visibility 10 km or more
Broken clouds at a height of 2500 ft
Broken clouds at a height of 3500 ft

METAR: SBPK 251800Z 24014KT 9999 BKN025 BKN035 14/08 Q1025

Time: 15:38 (18:38 UTC)

Forecast

The report was made 3 hours and 38 minutes ago, at 15:00 UTC
Forecast valid from 25 at 18 UTC to 26 at 18 UTC
Wind 8 kt from the West/Southwest
Visibility 10 km or more
Scattered clouds at a height of 3000 ft
Becoming
from 26 at 01 UTC to 26 at 03 UTC
Visibility 10 km or more
no clouds below 1500 m and no cumulonimbus
Becoming
from 26 at 13 UTC to 26 at 15 UTC
Wind 5 kt from the Southeast

TAF: SBPK 251500Z 2518/2618 24008KT 9999 SCT030 TN06/2608Z TX14/2617Z BECMG 2601/2603 CAVOK BECMG 2613/2615 13005KT RMK PEH

Weather observations and forecasts of more than 4000 airports (METAR and TAF reports).

The available stations are represented by yellow and red dots on the map.

Hover mouse over dot to see the name of the station.

Then click to see weather observations and forecasts.

To change the map : click on the green buttons with a black cross to zoom in, on the green button with a dash to zoom out, or on the green arrows for adjacent maps.


METAR-TAF: